sensor_id;sensor_type;location;lat;lon;timestamp;P1;durP1;ratioP1;P2;durP2;ratioP2
40204;SDS011;26963;42.666;23.366;2023-06-14T00:00:38;12.48;;;10.95;;
40204;SDS011;26963;42.666;23.366;2023-06-14T00:03:08;13.00;;;11.70;;
40204;SDS011;26963;42.666;23.366;2023-06-14T00:05:35;10.43;;;9.30;;
40204;SDS011;26963;42.666;23.366;2023-06-14T00:08:06;12.73;;;9.98;;
40204;SDS011;26963;42.666;23.366;2023-06-14T00:10:35;11.73;;;9.43;;
40204;SDS011;26963;42.666;23.366;2023-06-14T00:13:01;11.07;;;8.70;;
40204;SDS011;26963;42.666;23.366;2023-06-14T00:15:29;9.23;;;8.23;;
40204;SDS011;26963;42.666;23.366;2023-06-14T00:17:56;10.40;;;8.50;;
40204;SDS011;26963;42.666;23.366;2023-06-14T00:20:29;12.02;;;8.40;;
40204;SDS011;26963;42.666;23.366;2023-06-14T00:22:57;10.77;;;8.63;;
40204;SDS011;26963;42.666;23.366;2023-06-14T00:25:26;10.23;;;7.60;;
40204;SDS011;26963;42.666;23.366;2023-06-14T00:27:53;10.32;;;8.13;;
40204;SDS011;26963;42.666;23.366;2023-06-14T00:30:19;10.27;;;7.30;;
40204;SDS011;26963;42.666;23.366;2023-06-14T00:32:45;8.25;;;7.45;;
40204;SDS011;26963;42.666;23.366;2023-06-14T00:35:11;8.90;;;7.35;;
40204;SDS011;26963;42.666;23.366;2023-06-14T00:37:37;10.60;;;8.75;;
40204;SDS011;26963;42.666;23.366;2023-06-14T00:40:03;9.63;;;7.53;;
40204;SDS011;26963;42.666;23.366;2023-06-14T00:42:29;9.95;;;8.25;;
40204;SDS011;26963;42.666;23.366;2023-06-14T00:44:55;8.35;;;7.03;;
40204;SDS011;26963;42.666;23.366;2023-06-14T00:47:21;9.95;;;8.10;;
40204;SDS011;26963;42.666;23.366;2023-06-14T00:49:46;10.45;;;7.68;;
40204;SDS011;26963;42.666;23.366;2023-06-14T00:52:13;8.77;;;7.57;;
40204;SDS011;26963;42.666;23.366;2023-06-14T00:54:40;8.18;;;7.30;;
40204;SDS011;26963;42.666;23.366;2023-06-14T00:57:06;13.27;;;7.72;;
40204;SDS011;26963;42.666;23.366;2023-06-14T00:59:32;9.60;;;7.65;;
40204;SDS011;26963;42.666;23.366;2023-06-14T01:02:00;11.50;;;7.90;;
40204;SDS011;26963;42.666;23.366;2023-06-14T01:04:25;9.13;;;7.68;;
40204;SDS011;26963;42.666;23.366;2023-06-14T01:09:43;9.48;;;7.68;;
40204;SDS011;26963;42.666;23.366;2023-06-14T01:12:36;9.75;;;6.68;;
40204;SDS011;26963;42.666;23.366;2023-06-14T01:15:14;9.80;;;6.88;;
40204;SDS011;26963;42.666;23.366;2023-06-14T01:17:41;8.30;;;6.47;;
40204;SDS011;26963;42.666;23.366;2023-06-14T01:20:10;9.68;;;6.43;;
40204;SDS011;26963;42.666;23.366;2023-06-14T01:22:52;7.50;;;6.13;;
40204;SDS011;26963;42.666;23.366;2023-06-14T01:25:22;8.10;;;6.40;;
40204;SDS011;26963;42.666;23.366;2023-06-14T01:27:49;7.20;;;6.25;;
40204;SDS011;26963;42.666;23.366;2023-06-14T01:30:16;6.90;;;6.20;;
40204;SDS011;26963;42.666;23.366;2023-06-14T01:32:43;6.45;;;5.55;;
40204;SDS011;26963;42.666;23.366;2023-06-14T01:35:10;9.45;;;5.32;;
40204;SDS011;26963;42.666;23.366;2023-06-14T01:37:36;8.00;;;5.80;;
40204;SDS011;26963;42.666;23.366;2023-06-14T01:40:03;6.55;;;5.80;;
40204;SDS011;26963;42.666;23.366;2023-06-14T01:42:32;8.48;;;5.50;;
40204;SDS011;26963;42.666;23.366;2023-06-14T01:45:00;7.07;;;5.68;;
40204;SDS011;26963;42.666;23.366;2023-06-14T01:47:27;7.68;;;5.80;;
40204;SDS011;26963;42.666;23.366;2023-06-14T01:49:53;8.25;;;5.22;;
40204;SDS011;26963;42.666;23.366;2023-06-14T01:52:18;7.80;;;5.57;;
40204;SDS011;26963;42.666;23.366;2023-06-14T01:54:44;7.00;;;5.60;;
40204;SDS011;26963;42.666;23.366;2023-06-14T01:57:10;8.65;;;5.40;;
40204;SDS011;26963;42.666;23.366;2023-06-14T01:59:37;5.82;;;5.22;;
40204;SDS011;26963;42.666;23.366;2023-06-14T02:02:03;7.45;;;5.55;;
40204;SDS011;26963;42.666;23.366;2023-06-14T02:04:31;7.57;;;5.80;;
40204;SDS011;26963;42.666;23.366;2023-06-14T02:06:56;6.95;;;6.05;;
40204;SDS011;26963;42.666;23.366;2023-06-14T02:09:22;8.50;;;6.35;;
40204;SDS011;26963;42.666;23.366;2023-06-14T02:11:49;7.53;;;5.65;;
40204;SDS011;26963;42.666;23.366;2023-06-14T02:14:14;9.98;;;5.85;;
40204;SDS011;26963;42.666;23.366;2023-06-14T02:16:41;7.75;;;5.97;;
40204;SDS011;26963;42.666;23.366;2023-06-14T02:19:14;11.68;;;6.15;;
40204;SDS011;26963;42.666;23.366;2023-06-14T02:21:40;10.43;;;6.07;;
40204;SDS011;26963;42.666;23.366;2023-06-14T02:24:06;8.10;;;5.70;;
40204;SDS011;26963;42.666;23.366;2023-06-14T02:26:32;9.30;;;5.68;;
40204;SDS011;26963;42.666;23.366;2023-06-14T02:28:58;8.45;;;5.57;;
40204;SDS011;26963;42.666;23.366;2023-06-14T02:31:23;6.72;;;6.13;;
40204;SDS011;26963;42.666;23.366;2023-06-14T02:33:49;7.45;;;6.05;;
40204;SDS011;26963;42.666;23.366;2023-06-14T02:36:15;9.98;;;5.85;;
40204;SDS011;26963;42.666;23.366;2023-06-14T02:38:41;6.32;;;5.70;;
40204;SDS011;26963;42.666;23.366;2023-06-14T02:41:07;7.38;;;5.60;;
40204;SDS011;26963;42.666;23.366;2023-06-14T02:43:32;9.40;;;6.18;;
40204;SDS011;26963;42.666;23.366;2023-06-14T02:45:58;7.15;;;5.65;;
40204;SDS011;26963;42.666;23.366;2023-06-14T02:48:23;7.43;;;6.40;;
40204;SDS011;26963;42.666;23.366;2023-06-14T02:50:49;6.80;;;6.05;;
40204;SDS011;26963;42.666;23.366;2023-06-14T02:53:15;7.10;;;6.32;;
40204;SDS011;26963;42.666;23.366;2023-06-14T02:55:41;7.43;;;6.30;;
40204;SDS011;26963;42.666;23.366;2023-06-14T02:58:06;9.80;;;6.85;;
40204;SDS011;26963;42.666;23.366;2023-06-14T03:00:32;7.57;;;6.88;;
40204;SDS011;26963;42.666;23.366;2023-06-14T03:02:57;7.25;;;6.40;;
40204;SDS011;26963;42.666;23.366;2023-06-14T03:05:26;8.57;;;6.88;;
40204;SDS011;26963;42.666;23.366;2023-06-14T03:07:53;11.60;;;7.78;;
40204;SDS011;26963;42.666;23.366;2023-06-14T03:10:19;9.75;;;6.80;;
40204;SDS011;26963;42.666;23.366;2023-06-14T03:12:47;8.80;;;7.90;;
40204;SDS011;26963;42.666;23.366;2023-06-14T03:15:12;13.57;;;8.63;;
40204;SDS011;26963;42.666;23.366;2023-06-14T03:17:38;8.70;;;7.35;;
40204;SDS011;26963;42.666;23.366;2023-06-14T03:20:04;7.13;;;6.35;;
40204;SDS011;26963;42.666;23.366;2023-06-14T03:22:31;8.77;;;7.35;;
40204;SDS011;26963;42.666;23.366;2023-06-14T03:24:59;8.63;;;7.20;;
40204;SDS011;26963;42.666;23.366;2023-06-14T03:27:25;9.65;;;6.97;;
40204;SDS011;26963;42.666;23.366;2023-06-14T03:29:53;8.93;;;6.80;;
40204;SDS011;26963;42.666;23.366;2023-06-14T03:32:18;9.07;;;7.15;;
40204;SDS011;26963;42.666;23.366;2023-06-14T03:34:44;7.75;;;6.28;;
40204;SDS011;26963;42.666;23.366;2023-06-14T03:37:10;6.88;;;6.22;;
40204;SDS011;26963;42.666;23.366;2023-06-14T03:39:35;12.70;;;7.20;;
40204;SDS011;26963;42.666;23.366;2023-06-14T03:42:01;7.30;;;6.60;;
40204;SDS011;26963;42.666;23.366;2023-06-14T03:44:27;7.97;;;6.80;;
40204;SDS011;26963;42.666;23.366;2023-06-14T03:46:53;11.13;;;6.55;;
40204;SDS011;26963;42.666;23.366;2023-06-14T03:49:18;8.73;;;6.53;;
40204;SDS011;26963;42.666;23.366;2023-06-14T03:51:44;8.27;;;7.05;;
40204;SDS011;26963;42.666;23.366;2023-06-14T03:54:10;11.55;;;6.88;;
40204;SDS011;26963;42.666;23.366;2023-06-14T03:56:35;7.63;;;6.65;;
40204;SDS011;26963;42.666;23.366;2023-06-14T03:59:01;8.75;;;6.90;;
40204;SDS011;26963;42.666;23.366;2023-06-14T04:01:27;7.97;;;6.43;;
40204;SDS011;26963;42.666;23.366;2023-06-14T04:03:57;8.07;;;7.05;;
40204;SDS011;26963;42.666;23.366;2023-06-14T04:06:23;8.95;;;7.15;;
40204;SDS011;26963;42.666;23.366;2023-06-14T04:08:50;7.88;;;6.95;;
40204;SDS011;26963;42.666;23.366;2023-06-14T04:11:17;10.60;;;7.93;;
40204;SDS011;26963;42.666;23.366;2023-06-14T04:13:42;7.82;;;7.13;;
40204;SDS011;26963;42.666;23.366;2023-06-14T04:16:08;11.55;;;7.50;;
40204;SDS011;26963;42.666;23.366;2023-06-14T04:18:33;11.00;;;8.63;;
40204;SDS011;26963;42.666;23.366;2023-06-14T04:20:59;11.93;;;9.38;;
40204;SDS011;26963;42.666;23.366;2023-06-14T04:23:25;12.20;;;10.02;;
40204;SDS011;26963;42.666;23.366;2023-06-14T04:25:53;13.77;;;10.48;;
40204;SDS011;26963;42.666;23.366;2023-06-14T04:28:19;11.70;;;10.50;;
40204;SDS011;26963;42.666;23.366;2023-06-14T04:30:44;12.27;;;8.80;;
40204;SDS011;26963;42.666;23.366;2023-06-14T04:33:12;12.57;;;9.80;;
40204;SDS011;26963;42.666;23.366;2023-06-14T04:35:38;11.95;;;10.02;;
40204;SDS011;26963;42.666;23.366;2023-06-14T04:38:05;11.80;;;8.40;;
40204;SDS011;26963;42.666;23.366;2023-06-14T04:40:34;8.73;;;7.53;;
40204;SDS011;26963;42.666;23.366;2023-06-14T04:43:11;10.80;;;7.38;;
40204;SDS011;26963;42.666;23.366;2023-06-14T04:45:40;11.30;;;10.00;;
40204;SDS011;26963;42.666;23.366;2023-06-14T04:48:06;8.57;;;7.50;;
40204;SDS011;26963;42.666;23.366;2023-06-14T04:50:32;8.55;;;7.75;;
40204;SDS011;26963;42.666;23.366;2023-06-14T04:52:58;7.90;;;6.88;;
40204;SDS011;26963;42.666;23.366;2023-06-14T04:55:25;9.98;;;7.10;;
40204;SDS011;26963;42.666;23.366;2023-06-14T04:57:51;9.25;;;7.38;;
40204;SDS011;26963;42.666;23.366;2023-06-14T05:00:19;12.82;;;7.40;;
40204;SDS011;26963;42.666;23.366;2023-06-14T05:02:45;9.52;;;7.45;;
40204;SDS011;26963;42.666;23.366;2023-06-14T05:05:12;9.40;;;7.50;;
40204;SDS011;26963;42.666;23.366;2023-06-14T05:07:38;10.75;;;8.23;;
40204;SDS011;26963;42.666;23.366;2023-06-14T05:10:03;10.85;;;9.18;;
40204;SDS011;26963;42.666;23.366;2023-06-14T05:12:30;12.98;;;9.20;;
40204;SDS011;26963;42.666;23.366;2023-06-14T05:14:55;10.93;;;8.93;;
40204;SDS011;26963;42.666;23.366;2023-06-14T05:17:23;14.40;;;12.90;;
40204;SDS011;26963;42.666;23.366;2023-06-14T05:19:49;13.68;;;11.55;;
40204;SDS011;26963;42.666;23.366;2023-06-14T05:22:15;15.35;;;12.45;;
40204;SDS011;26963;42.666;23.366;2023-06-14T05:24:41;14.25;;;12.85;;
40204;SDS011;26963;42.666;23.366;2023-06-14T05:27:07;14.05;;;12.02;;
40204;SDS011;26963;42.666;23.366;2023-06-14T05:29:33;14.93;;;12.02;;
40204;SDS011;26963;42.666;23.366;2023-06-14T05:31:58;12.57;;;10.88;;
40204;SDS011;26963;42.666;23.366;2023-06-14T05:34:24;13.48;;;11.77;;
40204;SDS011;26963;42.666;23.366;2023-06-14T05:36:50;13.00;;;11.60;;
40204;SDS011;26963;42.666;23.366;2023-06-14T05:39:15;13.70;;;11.93;;
40204;SDS011;26963;42.666;23.366;2023-06-14T05:41:42;15.93;;;13.10;;
40204;SDS011;26963;42.666;23.366;2023-06-14T05:44:09;13.88;;;12.55;;
40204;SDS011;26963;42.666;23.366;2023-06-14T05:46:34;13.70;;;12.38;;
40204;SDS011;26963;42.666;23.366;2023-06-14T05:49:00;13.70;;;12.32;;
40204;SDS011;26963;42.666;23.366;2023-06-14T05:51:25;12.77;;;11.48;;
40204;SDS011;26963;42.666;23.366;2023-06-14T05:53:51;15.15;;;12.73;;
40204;SDS011;26963;42.666;23.366;2023-06-14T05:56:17;15.15;;;12.32;;
40204;SDS011;26963;42.666;23.366;2023-06-14T05:58:44;14.95;;;13.45;;
40204;SDS011;26963;42.666;23.366;2023-06-14T06:01:10;15.93;;;13.23;;
40204;SDS011;26963;42.666;23.366;2023-06-14T06:03:36;26.05;;;22.02;;
40204;SDS011;26963;42.666;23.366;2023-06-14T06:06:02;19.42;;;17.45;;
40204;SDS011;26963;42.666;23.366;2023-06-14T06:08:28;18.23;;;16.10;;
40204;SDS011;26963;42.666;23.366;2023-06-14T06:10:54;17.90;;;15.88;;
40204;SDS011;26963;42.666;23.366;2023-06-14T06:13:19;14.05;;;12.65;;
40204;SDS011;26963;42.666;23.366;2023-06-14T06:15:45;15.25;;;13.35;;
40204;SDS011;26963;42.666;23.366;2023-06-14T06:18:11;14.18;;;12.38;;
40204;SDS011;26963;42.666;23.366;2023-06-14T06:20:36;15.32;;;13.70;;
40204;SDS011;26963;42.666;23.366;2023-06-14T06:23:02;16.30;;;14.38;;
40204;SDS011;26963;42.666;23.366;2023-06-14T06:25:27;14.00;;;12.48;;
40204;SDS011;26963;42.666;23.366;2023-06-14T06:27:53;16.05;;;12.63;;
40204;SDS011;26963;42.666;23.366;2023-06-14T06:30:19;14.85;;;13.45;;
40204;SDS011;26963;42.666;23.366;2023-06-14T06:32:45;15.80;;;13.05;;
40204;SDS011;26963;42.666;23.366;2023-06-14T06:35:13;15.30;;;13.75;;
40204;SDS011;26963;42.666;23.366;2023-06-14T06:37:39;15.65;;;14.15;;
40204;SDS011;26963;42.666;23.366;2023-06-14T06:40:05;15.40;;;13.80;;
40204;SDS011;26963;42.666;23.366;2023-06-14T06:42:31;15.57;;;13.98;;
40204;SDS011;26963;42.666;23.366;2023-06-14T06:44:57;16.08;;;14.38;;
40204;SDS011;26963;42.666;23.366;2023-06-14T06:47:23;18.17;;;14.43;;
40204;SDS011;26963;42.666;23.366;2023-06-14T06:49:48;18.15;;;14.63;;
40204;SDS011;26963;42.666;23.366;2023-06-14T06:52:14;18.00;;;14.88;;
40204;SDS011;26963;42.666;23.366;2023-06-14T06:54:40;16.70;;;14.93;;
40204;SDS011;26963;42.666;23.366;2023-06-14T06:57:05;17.45;;;14.80;;
40204;SDS011;26963;42.666;23.366;2023-06-14T06:59:31;17.33;;;15.20;;
40204;SDS011;26963;42.666;23.366;2023-06-14T07:01:58;17.48;;;14.88;;
40204;SDS011;26963;42.666;23.366;2023-06-14T07:04:23;17.55;;;13.73;;
40204;SDS011;26963;42.666;23.366;2023-06-14T07:06:49;17.73;;;14.05;;
40204;SDS011;26963;42.666;23.366;2023-06-14T07:09:14;16.52;;;14.82;;
40204;SDS011;26963;42.666;23.366;2023-06-14T07:11:44;15.52;;;13.35;;
40204;SDS011;26963;42.666;23.366;2023-06-14T07:14:10;15.25;;;13.65;;
40204;SDS011;26963;42.666;23.366;2023-06-14T07:16:36;15.02;;;13.30;;
40204;SDS011;26963;42.666;23.366;2023-06-14T07:19:03;15.00;;;12.63;;
40204;SDS011;26963;42.666;23.366;2023-06-14T07:21:29;15.25;;;13.63;;
40204;SDS011;26963;42.666;23.366;2023-06-14T07:23:55;13.93;;;12.60;;
40204;SDS011;26963;42.666;23.366;2023-06-14T07:26:21;14.95;;;13.43;;
40204;SDS011;26963;42.666;23.366;2023-06-14T07:28:47;17.67;;;13.73;;
40204;SDS011;26963;42.666;23.366;2023-06-14T07:31:14;14.60;;;13.10;;
40204;SDS011;26963;42.666;23.366;2023-06-14T07:33:44;15.02;;;12.25;;
40204;SDS011;26963;42.666;23.366;2023-06-14T07:36:10;10.90;;;9.80;;
40204;SDS011;26963;42.666;23.366;2023-06-14T07:38:36;10.20;;;8.95;;
40204;SDS011;26963;42.666;23.366;2023-06-14T07:41:01;12.88;;;10.82;;
40204;SDS011;26963;42.666;23.366;2023-06-14T07:43:27;12.68;;;9.88;;
40204;SDS011;26963;42.666;23.366;2023-06-14T07:45:53;10.52;;;9.10;;
40204;SDS011;26963;42.666;23.366;2023-06-14T07:48:18;10.35;;;9.18;;
40204;SDS011;26963;42.666;23.366;2023-06-14T07:50:44;14.30;;;8.90;;
40204;SDS011;26963;42.666;23.366;2023-06-14T07:53:10;12.68;;;9.27;;
40204;SDS011;26963;42.666;23.366;2023-06-14T07:55:36;10.98;;;9.88;;
40204;SDS011;26963;42.666;23.366;2023-06-14T07:58:06;13.02;;;9.55;;
40204;SDS011;26963;42.666;23.366;2023-06-14T08:00:31;11.38;;;8.95;;
40204;SDS011;26963;42.666;23.366;2023-06-14T08:02:57;10.45;;;9.18;;
40204;SDS011;26963;42.666;23.366;2023-06-14T08:05:27;11.60;;;9.45;;
40204;SDS011;26963;42.666;23.366;2023-06-14T08:07:53;11.55;;;10.07;;
40204;SDS011;26963;42.666;23.366;2023-06-14T08:10:19;11.63;;;9.80;;
40204;SDS011;26963;42.666;23.366;2023-06-14T08:12:46;11.13;;;10.02;;
40204;SDS011;26963;42.666;23.366;2023-06-14T08:15:12;13.90;;;10.52;;
40204;SDS011;26963;42.666;23.366;2023-06-14T08:17:37;13.57;;;10.23;;
40204;SDS011;26963;42.666;23.366;2023-06-14T08:20:03;12.68;;;11.30;;
40204;SDS011;26963;42.666;23.366;2023-06-14T08:22:30;11.02;;;9.93;;
40204;SDS011;26963;42.666;23.366;2023-06-14T08:24:59;10.70;;;9.70;;
40204;SDS011;26963;42.666;23.366;2023-06-14T08:27:26;12.85;;;10.27;;
40204;SDS011;26963;42.666;23.366;2023-06-14T08:29:52;11.38;;;9.35;;
40204;SDS011;26963;42.666;23.366;2023-06-14T08:32:17;10.48;;;9.30;;
40204;SDS011;26963;42.666;23.366;2023-06-14T08:34:42;13.02;;;9.73;;
40204;SDS011;26963;42.666;23.366;2023-06-14T08:37:10;12.50;;;9.35;;
40204;SDS011;26963;42.666;23.366;2023-06-14T08:39:36;9.77;;;8.65;;
40204;SDS011;26963;42.666;23.366;2023-06-14T08:42:02;9.48;;;8.57;;
40204;SDS011;26963;42.666;23.366;2023-06-14T08:44:29;9.65;;;8.63;;
40204;SDS011;26963;42.666;23.366;2023-06-14T08:46:55;9.90;;;8.98;;
40204;SDS011;26963;42.666;23.366;2023-06-14T08:49:24;11.68;;;9.68;;
40204;SDS011;26963;42.666;23.366;2023-06-14T08:51:57;9.95;;;9.05;;
40204;SDS011;26963;42.666;23.366;2023-06-14T08:54:33;11.70;;;8.70;;
40204;SDS011;26963;42.666;23.366;2023-06-14T08:57:02;9.63;;;8.70;;
40204;SDS011;26963;42.666;23.366;2023-06-14T08:59:32;9.68;;;8.63;;
40204;SDS011;26963;42.666;23.366;2023-06-14T09:02:04;9.02;;;7.80;;
40204;SDS011;26963;42.666;23.366;2023-06-14T09:04:31;8.95;;;7.60;;
40204;SDS011;26963;42.666;23.366;2023-06-14T09:06:58;14.10;;;12.18;;
40204;SDS011;26963;42.666;23.366;2023-06-14T09:09:24;13.43;;;10.07;;
40204;SDS011;26963;42.666;23.366;2023-06-14T09:11:51;12.43;;;9.45;;
40204;SDS011;26963;42.666;23.366;2023-06-14T09:14:18;11.27;;;10.07;;
40204;SDS011;26963;42.666;23.366;2023-06-14T09:16:44;15.95;;;13.48;;
40204;SDS011;26963;42.666;23.366;2023-06-14T09:19:13;22.33;;;14.52;;
40204;SDS011;26963;42.666;23.366;2023-06-14T09:21:47;18.77;;;14.40;;
40204;SDS011;26963;42.666;23.366;2023-06-14T09:24:13;14.93;;;11.68;;
40204;SDS011;26963;42.666;23.366;2023-06-14T09:26:39;13.52;;;10.88;;
40204;SDS011;26963;42.666;23.366;2023-06-14T09:29:05;12.77;;;9.93;;
40204;SDS011;26963;42.666;23.366;2023-06-14T09:31:31;12.43;;;10.15;;
40204;SDS011;26963;42.666;23.366;2023-06-14T09:33:58;14.30;;;11.75;;
40204;SDS011;26963;42.666;23.366;2023-06-14T09:36:28;18.60;;;15.82;;
40204;SDS011;26963;42.666;23.366;2023-06-14T09:39:00;16.67;;;12.95;;
40204;SDS011;26963;42.666;23.366;2023-06-14T09:41:33;17.52;;;13.07;;
40204;SDS011;26963;42.666;23.366;2023-06-14T09:44:04;12.60;;;10.68;;
40204;SDS011;26963;42.666;23.366;2023-06-14T09:46:34;13.07;;;11.77;;
40204;SDS011;26963;42.666;23.366;2023-06-14T09:49:01;12.98;;;11.38;;
40204;SDS011;26963;42.666;23.366;2023-06-14T09:51:27;12.07;;;10.77;;
40204;SDS011;26963;42.666;23.366;2023-06-14T09:54:00;11.07;;;9.90;;
40204;SDS011;26963;42.666;23.366;2023-06-14T09:56:31;10.80;;;9.70;;
40204;SDS011;26963;42.666;23.366;2023-06-14T09:59:03;10.55;;;9.15;;
40204;SDS011;26963;42.666;23.366;2023-06-14T10:01:31;11.90;;;10.75;;
40204;SDS011;26963;42.666;23.366;2023-06-14T10:03:59;11.07;;;9.50;;
40204;SDS011;26963;42.666;23.366;2023-06-14T10:06:28;11.07;;;9.40;;
40204;SDS011;26963;42.666;23.366;2023-06-14T10:08:56;12.30;;;10.50;;
40204;SDS011;26963;42.666;23.366;2023-06-14T10:11:25;13.52;;;12.05;;
40204;SDS011;26963;42.666;23.366;2023-06-14T10:13:51;14.73;;;11.18;;
40204;SDS011;26963;42.666;23.366;2023-06-14T10:16:19;11.80;;;10.32;;
40204;SDS011;26963;42.666;23.366;2023-06-14T10:18:53;14.20;;;10.48;;
40204;SDS011;26963;42.666;23.366;2023-06-14T10:24:51;13.73;;;10.20;;
40204;SDS011;26963;42.666;23.366;2023-06-14T10:27:17;11.82;;;10.18;;
40204;SDS011;26963;42.666;23.366;2023-06-14T10:32:23;12.30;;;11.05;;
40204;SDS011;26963;42.666;23.366;2023-06-14T10:34:58;10.50;;;9.48;;
40204;SDS011;26963;42.666;23.366;2023-06-14T10:37:25;11.32;;;10.13;;
40204;SDS011;26963;42.666;23.366;2023-06-14T10:39:51;14.23;;;11.82;;
40204;SDS011;26963;42.666;23.366;2023-06-14T10:42:18;12.05;;;10.93;;
40204;SDS011;26963;42.666;23.366;2023-06-14T10:44:51;11.02;;;9.65;;
40204;SDS011;26963;42.666;23.366;2023-06-14T10:50:05;9.98;;;9.00;;
40204;SDS011;26963;42.666;23.366;2023-06-14T10:52:39;10.70;;;8.07;;
40204;SDS011;26963;42.666;23.366;2023-06-14T10:57:37;10.18;;;9.00;;
40204;SDS011;26963;42.666;23.366;2023-06-14T11:00:16;10.65;;;9.65;;
40204;SDS011;26963;42.666;23.366;2023-06-14T11:11:07;11.35;;;8.65;;
40204;SDS011;26963;42.666;23.366;2023-06-14T11:13:34;9.85;;;8.95;;
40204;SDS011;26963;42.666;23.366;2023-06-14T11:16:05;10.10;;;8.98;;
40204;SDS011;26963;42.666;23.366;2023-06-14T11:18:36;10.68;;;9.55;;
40204;SDS011;26963;42.666;23.366;2023-06-14T11:21:02;8.98;;;8.13;;
40204;SDS011;26963;42.666;23.366;2023-06-14T11:23:27;9.57;;;8.60;;
40204;SDS011;26963;42.666;23.366;2023-06-14T11:25:53;10.52;;;9.23;;
40204;SDS011;26963;42.666;23.366;2023-06-14T11:28:19;11.93;;;8.52;;
40204;SDS011;26963;42.666;23.366;2023-06-14T11:30:46;9.38;;;8.48;;
40204;SDS011;26963;42.666;23.366;2023-06-14T11:33:25;11.30;;;9.45;;
40204;SDS011;26963;42.666;23.366;2023-06-14T11:35:51;10.27;;;8.90;;
40204;SDS011;26963;42.666;23.366;2023-06-14T11:38:17;9.82;;;8.77;;
40204;SDS011;26963;42.666;23.366;2023-06-14T11:40:43;10.23;;;8.75;;
40204;SDS011;26963;42.666;23.366;2023-06-14T11:43:08;9.98;;;8.60;;
40204;SDS011;26963;42.666;23.366;2023-06-14T11:45:34;9.32;;;8.13;;
40204;SDS011;26963;42.666;23.366;2023-06-14T11:48:00;8.90;;;8.00;;
40204;SDS011;26963;42.666;23.366;2023-06-14T11:50:27;9.07;;;8.07;;
40204;SDS011;26963;42.666;23.366;2023-06-14T11:52:56;15.07;;;10.10;;
40204;SDS011;26963;42.666;23.366;2023-06-14T11:55:22;8.07;;;7.28;;
40204;SDS011;26963;42.666;23.366;2023-06-14T11:57:49;10.02;;;7.30;;
40204;SDS011;26963;42.666;23.366;2023-06-14T12:00:15;7.22;;;6.53;;
40204;SDS011;26963;42.666;23.366;2023-06-14T12:02:41;8.00;;;7.20;;
40204;SDS011;26963;42.666;23.366;2023-06-14T12:05:07;8.63;;;7.57;;
40204;SDS011;26963;42.666;23.366;2023-06-14T12:07:38;8.45;;;7.65;;
40204;SDS011;26963;42.666;23.366;2023-06-14T12:10:07;8.65;;;7.20;;
40204;SDS011;26963;42.666;23.366;2023-06-14T12:12:37;8.10;;;7.15;;
40204;SDS011;26963;42.666;23.366;2023-06-14T12:15:07;7.90;;;6.63;;
40204;SDS011;26963;42.666;23.366;2023-06-14T12:17:33;7.13;;;6.43;;
40204;SDS011;26963;42.666;23.366;2023-06-14T12:20:05;7.50;;;6.80;;
40204;SDS011;26963;42.666;23.366;2023-06-14T12:22:36;7.45;;;6.40;;
40204;SDS011;26963;42.666;23.366;2023-06-14T12:25:03;9.57;;;7.20;;
40204;SDS011;26963;42.666;23.366;2023-06-14T12:27:29;8.00;;;7.20;;
40204;SDS011;26963;42.666;23.366;2023-06-14T12:29:59;8.07;;;6.70;;
40204;SDS011;26963;42.666;23.366;2023-06-14T12:32:28;8.75;;;6.82;;
40204;SDS011;26963;42.666;23.366;2023-06-14T12:34:55;7.22;;;6.53;;
40204;SDS011;26963;42.666;23.366;2023-06-14T12:37:21;7.25;;;6.55;;
40204;SDS011;26963;42.666;23.366;2023-06-14T12:39:46;9.02;;;6.93;;
40204;SDS011;26963;42.666;23.366;2023-06-14T12:42:12;9.35;;;7.18;;
40204;SDS011;26963;42.666;23.366;2023-06-14T12:44:39;8.90;;;6.35;;
40204;SDS011;26963;42.666;23.366;2023-06-14T12:47:06;8.55;;;6.53;;
40204;SDS011;26963;42.666;23.366;2023-06-14T12:49:32;14.90;;;7.47;;
40204;SDS011;26963;42.666;23.366;2023-06-14T12:51:58;14.48;;;8.00;;
40204;SDS011;26963;42.666;23.366;2023-06-14T12:54:24;13.20;;;7.00;;
40204;SDS011;26963;42.666;23.366;2023-06-14T12:56:51;23.88;;;10.40;;
40204;SDS011;26963;42.666;23.366;2023-06-14T12:59:17;7.47;;;6.13;;
40204;SDS011;26963;42.666;23.366;2023-06-14T13:01:43;14.30;;;7.72;;
40204;SDS011;26963;42.666;23.366;2023-06-14T13:04:10;11.80;;;7.30;;
40204;SDS011;26963;42.666;23.366;2023-06-14T13:06:35;15.40;;;6.97;;
40204;SDS011;26963;42.666;23.366;2023-06-14T13:09:01;7.93;;;5.95;;
40204;SDS011;26963;42.666;23.366;2023-06-14T13:11:28;9.00;;;6.80;;
40204;SDS011;26963;42.666;23.366;2023-06-14T13:13:54;7.97;;;6.50;;
40204;SDS011;26963;42.666;23.366;2023-06-14T13:16:20;8.80;;;6.93;;
40204;SDS011;26963;42.666;23.366;2023-06-14T13:18:45;8.82;;;7.20;;
40204;SDS011;26963;42.666;23.366;2023-06-14T13:21:11;7.60;;;6.82;;
40204;SDS011;26963;42.666;23.366;2023-06-14T13:23:36;7.45;;;6.72;;
40204;SDS011;26963;42.666;23.366;2023-06-14T13:26:02;9.05;;;7.28;;
40204;SDS011;26963;42.666;23.366;2023-06-14T13:28:27;12.05;;;8.20;;
40204;SDS011;26963;42.666;23.366;2023-06-14T13:30:53;16.92;;;8.10;;
40204;SDS011;26963;42.666;23.366;2023-06-14T13:33:20;12.73;;;7.90;;
40204;SDS011;26963;42.666;23.366;2023-06-14T13:35:47;10.55;;;8.50;;
40204;SDS011;26963;42.666;23.366;2023-06-14T13:38:13;11.13;;;9.00;;
40204;SDS011;26963;42.666;23.366;2023-06-14T13:40:40;9.90;;;8.88;;
40204;SDS011;26963;42.666;23.366;2023-06-14T13:43:05;9.88;;;8.82;;
40204;SDS011;26963;42.666;23.366;2023-06-14T13:45:31;10.02;;;7.28;;
40204;SDS011;26963;42.666;23.366;2023-06-14T13:50:59;9.23;;;7.93;;
40204;SDS011;26963;42.666;23.366;2023-06-14T13:53:25;8.63;;;7.55;;
40204;SDS011;26963;42.666;23.366;2023-06-14T13:55:50;8.75;;;7.70;;
40204;SDS011;26963;42.666;23.366;2023-06-14T13:58:17;10.27;;;7.60;;
40204;SDS011;26963;42.666;23.366;2023-06-14T14:00:43;11.10;;;8.57;;
40204;SDS011;26963;42.666;23.366;2023-06-14T14:03:09;11.93;;;9.10;;
40204;SDS011;26963;42.666;23.366;2023-06-14T14:05:35;9.55;;;8.50;;
40204;SDS011;26963;42.666;23.366;2023-06-14T14:08:00;8.13;;;7.28;;
40204;SDS011;26963;42.666;23.366;2023-06-14T14:10:27;10.15;;;7.85;;
40204;SDS011;26963;42.666;23.366;2023-06-14T14:12:52;9.27;;;7.15;;
40204;SDS011;26963;42.666;23.366;2023-06-14T14:15:19;10.32;;;7.13;;
40204;SDS011;26963;42.666;23.366;2023-06-14T14:17:45;10.05;;;7.75;;
40204;SDS011;26963;42.666;23.366;2023-06-14T14:20:12;8.85;;;7.32;;
40204;SDS011;26963;42.666;23.366;2023-06-14T14:22:41;8.20;;;7.00;;
40204;SDS011;26963;42.666;23.366;2023-06-14T14:25:07;8.07;;;6.80;;
40204;SDS011;26963;42.666;23.366;2023-06-14T14:27:32;7.72;;;6.93;;
40204;SDS011;26963;42.666;23.366;2023-06-14T14:29:58;8.15;;;7.03;;
40204;SDS011;26963;42.666;23.366;2023-06-14T14:32:24;10.30;;;7.50;;
40204;SDS011;26963;42.666;23.366;2023-06-14T14:34:49;9.57;;;8.15;;
40204;SDS011;26963;42.666;23.366;2023-06-14T14:37:15;8.65;;;7.75;;
40204;SDS011;26963;42.666;23.366;2023-06-14T14:39:41;10.50;;;8.40;;
40204;SDS011;26963;42.666;23.366;2023-06-14T14:42:07;10.68;;;8.43;;
40204;SDS011;26963;42.666;23.366;2023-06-14T14:44:33;13.90;;;9.10;;
40204;SDS011;26963;42.666;23.366;2023-06-14T14:46:58;10.52;;;8.05;;